createdAt,value
2022-11-24T00:00:30.753Z,78.78
2022-11-24T00:02:57.389Z,78.12
2022-11-24T00:05:24.111Z,78.72
2022-11-24T00:07:50.745Z,78.21
2022-11-24T00:10:17.650Z,78.99
2022-11-24T00:12:44.254Z,78.95
2022-11-24T00:15:10.989Z,78.92
2022-11-24T00:17:37.552Z,78.21
2022-11-24T00:20:04.603Z,78.27
2022-11-24T00:22:31.173Z,77.44
2022-11-24T00:24:57.736Z,78.87
2022-11-24T00:27:24.296Z,79.09
2022-11-24T00:29:50.911Z,78.98
2022-11-24T00:32:17.487Z,78.32
2022-11-24T00:34:44.133Z,78.83
2022-11-24T00:37:10.740Z,77.92
2022-11-24T00:39:37.362Z,78.36
2022-11-24T00:42:03.981Z,78.95
2022-11-24T00:44:30.801Z,77.95
2022-11-24T00:46:57.720Z,78.79
2022-11-24T00:49:24.357Z,78.21
2022-11-24T00:51:53.012Z,78.77
2022-11-24T00:54:19.674Z,77.56
2022-11-24T00:56:46.269Z,79.23
2022-11-24T00:59:12.830Z,77.94
2022-11-24T01:01:39.519Z,78.18
2022-11-24T01:04:06.130Z,79.63
2022-11-24T01:06:33.088Z,78.60
2022-11-24T01:08:59.834Z,79.09
2022-11-24T01:11:29.852Z,79.25
2022-11-24T01:13:59.342Z,78.09
2022-11-24T01:16:29.139Z,79.01
2022-11-24T01:18:56.301Z,78.56
2022-11-24T01:21:24.664Z,78.08
2022-11-24T01:23:52.737Z,79.83
2022-11-24T01:26:23.793Z,79.07
2022-11-24T01:28:57.094Z,78.82
2022-11-24T01:31:26.546Z,79.40
2022-11-24T01:33:55.499Z,78.19
2022-11-24T01:36:23.876Z,79.27
2022-11-24T01:38:52.970Z,79.26
2022-11-24T01:41:24.999Z,79.77
2022-11-24T01:43:57.696Z,78.29
2022-11-24T01:49:14.454Z,78.37
2022-11-24T01:51:47.908Z,78.21
2022-11-24T01:54:20.339Z,78.62
2022-11-24T01:56:51.345Z,79.78
2022-11-24T01:59:21.822Z,79.74
2022-11-24T02:01:51.422Z,79.79
2022-11-24T02:04:23.944Z,79.92
2022-11-24T02:06:52.772Z,79.35
2022-11-24T02:09:24.152Z,79.91
2022-11-24T02:11:53.470Z,79.83
2022-11-24T02:14:22.362Z,78.79
2022-11-24T02:16:51.215Z,79.35
2022-11-24T02:19:53.798Z,79.11
2022-11-24T02:25:49.634Z,79.56
2022-11-24T02:28:20.156Z,79.11
2022-11-24T02:30:47.017Z,79.04
2022-11-24T02:33:14.044Z,78.89
2022-11-24T02:35:41.212Z,78.76
2022-11-24T02:38:12.102Z,78.83
2022-11-24T02:40:41.594Z,79.55
2022-11-24T02:43:13.800Z,78.52
2022-11-24T02:45:40.419Z,79.68
2022-11-24T02:48:07.820Z,80.21
2022-11-24T02:50:34.489Z,78.87
2022-11-24T02:53:01.070Z,79.13
2022-11-24T02:55:27.637Z,79.46
2022-11-24T02:57:54.235Z,80.19
2022-11-24T03:00:22.214Z,79.18
2022-11-24T03:02:48.939Z,79.77
2022-11-24T03:05:15.769Z,79.80
2022-11-24T03:07:42.397Z,79.14
2022-11-24T03:10:09.441Z,79.75
2022-11-24T03:12:36.161Z,79.91
2022-11-24T03:15:03.345Z,80.43
2022-11-24T03:17:30.100Z,80.24
2022-11-24T03:20:00.219Z,79.91
2022-11-24T03:22:30.892Z,79.40
2022-11-24T03:24:57.531Z,79.57
2022-11-24T03:27:24.125Z,78.91
2022-11-24T03:29:50.772Z,79.90
2022-11-24T03:32:17.381Z,80.09
2022-11-24T03:34:43.956Z,80.12
2022-11-24T03:37:10.609Z,80.62
2022-11-24T03:39:37.207Z,79.90
2022-11-24T03:42:03.912Z,80.85
2022-11-24T03:44:30.622Z,79.83
2022-11-24T03:46:57.248Z,80.95
2022-11-24T03:49:23.834Z,79.70
2022-11-24T03:51:50.589Z,80.50
2022-11-24T03:54:17.171Z,80.08
2022-11-24T03:56:43.825Z,79.86
2022-11-24T03:59:10.537Z,80.08
2022-11-24T04:01:37.166Z,81.29
2022-11-24T04:04:03.878Z,81.09
2022-11-24T04:06:30.515Z,79.99
2022-11-24T04:08:57.098Z,80.87
2022-11-24T04:11:43.598Z,79.85
2022-11-24T04:14:13.590Z,81.35
2022-11-24T04:16:40.864Z,79.81
2022-11-24T04:19:07.597Z,80.09
2022-11-24T04:21:34.184Z,81.30
2022-11-24T04:24:00.776Z,80.50
2022-11-24T04:26:27.755Z,80.19
2022-11-24T04:28:54.361Z,80.69
2022-11-24T04:31:21.046Z,80.70
2022-11-24T04:33:47.682Z,80.77
2022-11-24T04:36:14.307Z,79.65
2022-11-24T04:39:23.942Z,80.94
2022-11-24T04:41:27.575Z,81.08
2022-11-24T04:43:54.131Z,80.11
2022-11-24T04:46:20.776Z,80.17
2022-11-24T04:48:47.450Z,80.69
2022-11-24T04:51:15.261Z,81.27
2022-11-24T04:53:41.995Z,80.61
2022-11-24T04:56:08.749Z,81.16
2022-11-24T04:58:35.851Z,80.66
2022-11-24T05:01:06.121Z,81.03
2022-11-24T05:03:32.716Z,81.58
2022-11-24T05:05:59.896Z,80.79
2022-11-24T05:08:26.513Z,80.77
2022-11-24T05:10:53.242Z,81.26
2022-11-24T05:13:19.853Z,80.97
2022-11-24T05:15:46.525Z,80.47
2022-11-24T05:18:15.819Z,80.26
2022-11-24T05:20:44.760Z,80.74
2022-11-24T05:23:11.401Z,80.99
2022-11-24T05:25:37.946Z,80.16
2022-11-24T05:28:08.822Z,81.26
2022-11-24T05:30:38.189Z,81.20
2022-11-24T05:33:07.725Z,81.58
2022-11-24T05:35:36.468Z,81.35
2022-11-24T05:38:04.434Z,81.74
2022-11-24T05:40:32.024Z,80.86
2022-11-24T05:42:59.321Z,80.62
2022-11-24T05:45:26.148Z,80.93
2022-11-24T05:47:53.285Z,81.65
2022-11-24T05:50:22.049Z,80.91
2022-11-24T05:52:49.716Z,81.74
2022-11-24T05:55:19.371Z,81.58
2022-11-24T05:57:46.210Z,81.46
2022-11-24T06:00:13.308Z,81.28
2022-11-24T06:02:40.161Z,80.66
2022-11-24T06:05:07.199Z,80.50
2022-11-24T06:07:33.800Z,81.44
2022-11-24T06:10:00.370Z,81.86
2022-11-24T06:12:26.939Z,80.98
2022-11-24T06:14:53.480Z,81.60
2022-11-24T06:17:20.031Z,80.87
2022-11-24T06:19:50.121Z,80.78
2022-11-24T06:22:17.684Z,80.99
2022-11-24T06:24:44.309Z,81.42
2022-11-24T06:27:10.852Z,82.41
2022-11-24T06:29:37.400Z,81.84
2022-11-24T06:32:04.294Z,82.39
2022-11-24T06:34:31.006Z,80.71
2022-11-24T06:36:57.933Z,81.79
2022-11-24T06:39:24.504Z,81.73
2022-11-24T06:41:51.529Z,81.45
2022-11-24T06:44:18.487Z,81.91
2022-11-24T06:46:45.344Z,81.57
2022-11-24T06:49:11.877Z,81.78
2022-11-24T06:51:38.467Z,81.20
2022-11-24T06:54:10.393Z,80.72
2022-11-24T06:56:36.984Z,81.91
2022-11-24T06:59:03.594Z,82.05
2022-11-24T07:01:30.668Z,81.98
2022-11-24T07:03:58.268Z,81.34
2022-11-24T07:06:26.780Z,81.00
2022-11-24T07:08:53.540Z,82.35
2022-11-24T07:11:23.060Z,82.14
2022-11-24T07:13:56.697Z,81.01
2022-11-24T07:16:26.786Z,82.16
2022-11-24T07:18:54.157Z,81.72
2022-11-24T07:21:22.936Z,82.29
2022-11-24T07:23:51.404Z,81.10
2022-11-24T07:26:19.050Z,82.03
2022-11-24T07:28:46.017Z,80.96
2022-11-24T07:31:15.472Z,81.72
2022-11-24T07:33:42.335Z,81.68
2022-11-24T07:36:09.499Z,81.21
2022-11-24T07:38:36.265Z,81.01
2022-11-24T07:41:05.082Z,80.82
2022-11-24T07:43:33.058Z,82.00
2022-11-24T07:45:59.878Z,81.56
2022-11-24T07:48:26.959Z,81.84
2022-11-24T07:50:56.106Z,81.31
2022-11-24T07:53:22.988Z,81.00
2022-11-24T07:55:55.937Z,81.39
2022-11-24T07:58:25.495Z,81.94
2022-11-24T08:00:54.258Z,80.95
2022-11-24T08:03:24.120Z,82.00
2022-11-24T08:08:43.927Z,82.17
2022-11-24T08:11:13.815Z,81.61
2022-11-24T08:13:41.387Z,81.74
2022-11-24T08:16:10.707Z,81.69
2022-11-24T08:18:38.111Z,81.48
2022-11-24T08:21:06.074Z,79.54
2022-11-24T08:23:33.037Z,79.85
2022-11-24T08:26:05.147Z,79.57
2022-11-24T08:28:32.981Z,80.28
2022-11-24T08:31:05.129Z,81.50
2022-11-24T08:33:32.390Z,80.32
2022-11-24T08:36:17.930Z,80.54
2022-11-24T08:38:45.324Z,80.97
2022-11-24T08:41:15.828Z,80.17
2022-11-24T08:43:42.804Z,80.20
2022-11-24T08:46:13.733Z,79.98
2022-11-24T08:48:40.609Z,80.50
2022-11-24T08:51:10.668Z,80.99
2022-11-24T08:53:37.421Z,81.22
2022-11-24T08:56:05.502Z,80.00
2022-11-24T08:58:34.250Z,80.62
2022-11-24T09:01:11.165Z,79.88
2022-11-24T09:03:38.412Z,79.47
2022-11-24T09:06:06.797Z,80.78
2022-11-24T09:08:34.191Z,79.35
2022-11-24T09:11:04.214Z,79.95
2022-11-24T09:13:30.834Z,79.45
2022-11-24T09:16:02.015Z,80.68
2022-11-24T09:18:30.413Z,79.59
2022-11-24T09:21:08.161Z,79.74
2022-11-24T09:23:34.930Z,81.08
2022-11-24T09:26:05.900Z,80.92
2022-11-24T09:28:32.528Z,79.79
2022-11-24T09:31:02.713Z,79.43
2022-11-24T09:33:30.098Z,79.92
2022-11-24T09:35:56.758Z,79.44
2022-11-24T09:38:23.385Z,79.30
2022-11-24T09:40:50.671Z,80.54
2022-11-24T09:43:36.979Z,81.19
2022-11-24T09:46:16.037Z,81.34
2022-11-24T09:48:48.527Z,81.21
2022-11-24T09:51:16.102Z,81.25
2022-11-24T09:53:48.748Z,80.48
2022-11-24T09:58:54.916Z,80.38
2022-11-24T10:01:29.102Z,81.19
2022-11-24T10:03:58.607Z,80.07
2022-11-24T10:06:31.855Z,80.83
2022-11-24T10:11:43.081Z,80.84
2022-11-24T10:22:36.124Z,81.42
2022-11-24T10:27:46.879Z,80.29
2022-11-24T10:30:18.468Z,79.58
2022-11-24T10:32:48.197Z,79.86
2022-11-24T10:35:19.073Z,79.33
2022-11-24T10:43:11.288Z,79.04
2022-11-24T10:45:39.542Z,78.77
2022-11-24T10:48:18.637Z,78.54
2022-11-24T10:50:45.267Z,79.04
2022-11-24T10:53:30.207Z,78.18
2022-11-24T10:58:37.956Z,78.32
2022-11-24T11:01:33.441Z,77.97
2022-11-24T11:04:01.616Z,78.31
2022-11-24T11:11:44.594Z,77.74
2022-11-24T11:14:13.019Z,78.65
2022-11-24T11:16:43.802Z,78.64
2022-11-24T11:19:50.676Z,78.81
2022-11-24T11:22:29.132Z,78.89
2022-11-24T11:27:47.212Z,79.03
2022-11-24T11:35:46.226Z,79.61
2022-11-24T11:38:12.854Z,79.39
2022-11-24T11:40:42.886Z,79.05
2022-11-24T11:43:27.224Z,79.44
2022-11-24T11:46:03.813Z,79.80
2022-11-24T11:48:42.701Z,78.42
2022-11-24T11:51:35.924Z,78.87
2022-11-24T11:56:45.339Z,78.00
2022-11-24T11:59:37.809Z,77.79
2022-11-24T12:05:26.554Z,77.81
2022-11-24T12:13:45.070Z,76.88
2022-11-24T12:16:25.144Z,76.35
2022-11-24T12:19:15.772Z,76.86
2022-11-24T12:33:13.163Z,77.14
2022-11-24T12:43:39.699Z,76.56
2022-11-24T12:46:35.214Z,76.04
2022-11-24T12:51:56.133Z,77.15
2022-11-24T12:54:24.887Z,77.29
2022-11-24T12:57:07.542Z,77.01
2022-11-24T13:05:42.527Z,76.56
2022-11-24T13:08:09.464Z,76.17
2022-11-24T13:10:56.185Z,75.76
2022-11-24T13:13:28.245Z,75.90
2022-11-24T13:27:15.487Z,75.96
2022-11-24T13:29:44.205Z,76.68
2022-11-24T13:58:53.896Z,78.88
2022-11-24T14:01:24.264Z,78.54
2022-11-24T14:14:52.769Z,78.43
2022-11-24T14:17:25.120Z,79.40
2022-11-24T14:19:53.634Z,78.15
2022-11-24T14:22:23.086Z,78.57
2022-11-24T14:24:57.321Z,79.40
2022-11-24T14:27:29.879Z,79.32
2022-11-24T14:30:00.537Z,78.58
2022-11-24T14:32:27.552Z,79.70
2022-11-24T14:34:54.626Z,79.61
2022-11-24T14:37:21.465Z,79.28
2022-11-24T14:39:48.115Z,79.90
2022-11-24T14:45:03.789Z,79.08
2022-11-24T14:50:23.428Z,81.17
2022-11-24T14:52:54.455Z,81.17
2022-11-24T14:55:39.156Z,81.76
2022-11-24T14:58:27.752Z,82.00
2022-11-24T15:01:32.684Z,82.09
2022-11-24T15:07:26.068Z,82.36
2022-11-24T15:09:58.114Z,81.15
2022-11-24T15:12:43.279Z,82.49
2022-11-24T15:15:20.557Z,82.30
2022-11-24T15:17:49.816Z,81.91
2022-11-24T15:20:37.332Z,82.92
2022-11-24T15:25:56.228Z,81.92
2022-11-24T15:28:27.081Z,81.05
2022-11-24T15:30:54.855Z,81.43
2022-11-24T15:33:23.214Z,81.21
2022-11-24T15:35:50.457Z,80.89
2022-11-24T15:38:17.468Z,82.15
2022-11-24T15:40:46.909Z,81.94
2022-11-24T15:45:53.141Z,81.01
2022-11-24T15:48:19.712Z,79.13
2022-11-24T15:50:47.401Z,79.10
2022-11-24T15:53:20.182Z,78.06
2022-11-24T15:55:47.609Z,78.18
2022-11-24T15:58:15.215Z,78.66
2022-11-24T16:00:43.373Z,78.15
2022-11-24T16:03:44.314Z,78.04
2022-11-24T16:05:57.316Z,78.00
2022-11-24T16:08:24.012Z,78.60
2022-11-24T16:10:51.336Z,78.03
2022-11-24T16:13:17.970Z,78.44
2022-11-24T16:15:45.994Z,78.79
2022-11-24T16:18:13.991Z,78.07
2022-11-24T16:20:40.747Z,78.00
2022-11-24T16:23:07.397Z,77.87
2022-11-24T16:25:34.002Z,78.53
2022-11-24T16:28:00.581Z,77.76
2022-11-24T16:30:27.148Z,77.94
2022-11-24T16:32:53.712Z,78.00
2022-11-24T16:35:20.353Z,77.42
2022-11-24T16:37:46.940Z,77.82
2022-11-24T16:40:14.525Z,78.12
2022-11-24T16:42:41.138Z,78.13
2022-11-24T16:45:11.002Z,78.12
2022-11-24T16:47:40.139Z,77.77
2022-11-24T16:50:08.215Z,78.44
2022-11-24T16:52:34.813Z,77.73
2022-11-24T16:55:01.867Z,78.17
2022-11-24T16:57:28.491Z,77.80
2022-11-24T16:59:55.023Z,78.09
2022-11-24T17:02:21.691Z,77.69
2022-11-24T17:04:52.179Z,78.22
2022-11-24T17:07:20.357Z,78.13
2022-11-24T17:09:47.247Z,78.09
2022-11-24T17:12:13.808Z,78.12
2022-11-24T17:14:40.325Z,77.68
2022-11-24T17:17:06.874Z,78.18
2022-11-24T17:19:33.439Z,78.25
2022-11-24T17:22:00.056Z,78.77
2022-11-24T17:24:26.638Z,78.15
2022-11-24T17:26:53.345Z,78.33
2022-11-24T17:29:20.008Z,77.89
2022-11-24T17:31:46.843Z,78.63
2022-11-24T17:34:13.733Z,78.77
2022-11-24T17:36:41.557Z,78.92
2022-11-24T17:39:09.243Z,78.79
2022-11-24T17:41:35.877Z,79.03
2022-11-24T17:44:02.810Z,79.37
2022-11-24T17:46:30.666Z,78.56
2022-11-24T17:48:57.941Z,79.01
2022-11-24T17:51:26.231Z,78.99
2022-11-24T17:53:54.582Z,78.96
2022-11-24T17:56:25.055Z,79.05
2022-11-24T17:58:54.679Z,79.47
2022-11-24T18:01:22.511Z,79.84
2022-11-24T18:03:53.488Z,78.76
2022-11-24T18:06:24.136Z,79.21
2022-11-24T18:08:50.856Z,79.37
2022-11-24T18:11:24.661Z,78.81
2022-11-24T18:14:00.770Z,79.26
2022-11-24T18:16:30.377Z,79.49
2022-11-24T18:19:09.829Z,79.01
2022-11-24T18:21:39.081Z,78.89
2022-11-24T18:24:06.656Z,79.69
2022-11-24T18:26:33.324Z,79.73
2022-11-24T18:28:59.930Z,78.72
2022-11-24T18:31:26.829Z,79.00
2022-11-24T18:33:53.705Z,78.90
2022-11-24T18:36:28.392Z,78.67
2022-11-24T18:38:56.749Z,79.13
2022-11-24T18:41:23.334Z,79.38
2022-11-24T18:43:49.897Z,79.00
2022-11-24T18:46:19.260Z,78.50
2022-11-24T18:48:45.977Z,79.14
2022-11-24T18:51:16.326Z,78.68
2022-11-24T18:53:44.371Z,79.25
2022-11-24T18:56:15.346Z,78.80
2022-11-24T18:58:42.564Z,78.39
2022-11-24T19:01:18.577Z,78.49
2022-11-24T19:03:49.043Z,78.02
2022-11-24T19:08:55.197Z,78.37
2022-11-24T19:11:24.836Z,77.57
2022-11-24T19:13:51.921Z,78.16
2022-11-24T19:16:20.402Z,78.15
2022-11-24T19:18:53.641Z,77.93
2022-11-24T19:21:21.733Z,77.43
2022-11-24T19:23:48.586Z,78.44
2022-11-24T19:26:15.283Z,77.79
2022-11-24T19:28:41.907Z,76.98
2022-11-24T19:31:11.352Z,76.99
2022-11-24T19:33:38.143Z,77.11
2022-11-24T19:36:07.697Z,77.84
2022-11-24T19:38:35.213Z,78.16
2022-11-24T19:41:05.131Z,78.43
2022-11-24T19:43:32.395Z,77.77
2022-11-24T19:46:02.410Z,77.73
2022-11-24T19:48:33.241Z,77.06
2022-11-24T19:51:06.662Z,77.07
2022-11-24T19:53:34.104Z,78.25
2022-11-24T19:56:06.233Z,76.98
2022-11-24T19:58:32.901Z,77.97
2022-11-24T20:03:59.061Z,77.17
2022-11-24T20:06:28.126Z,77.70
2022-11-24T20:08:54.687Z,78.13
2022-11-24T20:11:21.957Z,77.04
2022-11-24T20:13:49.947Z,77.79
2022-11-24T20:16:18.876Z,77.45
2022-11-24T20:18:46.924Z,78.01
2022-11-24T20:21:17.894Z,76.71
2022-11-24T20:23:46.262Z,78.12
2022-11-24T20:26:16.236Z,78.31
2022-11-24T20:28:43.153Z,77.17
2022-11-24T20:31:12.385Z,77.19
2022-11-24T20:33:39.921Z,78.13
2022-11-24T20:36:10.381Z,77.54
2022-11-24T20:38:37.729Z,78.31
2022-11-24T20:41:09.406Z,77.95
2022-11-24T20:43:37.058Z,78.30
2022-11-24T20:46:07.446Z,77.20
2022-11-24T20:48:35.105Z,78.32
2022-11-24T20:51:09.148Z,78.12
2022-11-24T20:53:37.158Z,78.63
2022-11-24T20:56:06.517Z,78.74
2022-11-24T20:58:35.081Z,77.65
2022-11-24T21:01:05.329Z,77.66
2022-11-24T21:03:32.076Z,78.96
2022-11-24T21:05:58.756Z,78.91
2022-11-24T21:08:25.407Z,79.08
2022-11-24T21:10:55.789Z,78.14
2022-11-24T21:13:23.001Z,77.62
2022-11-24T21:15:50.546Z,78.35
2022-11-24T21:18:17.394Z,77.89
2022-11-24T21:20:45.877Z,77.82
2022-11-24T21:23:13.829Z,78.62
2022-11-24T21:25:40.425Z,77.55
2022-11-24T21:28:08.213Z,77.96
2022-11-24T21:30:36.261Z,77.45
2022-11-24T21:33:04.127Z,77.84
2022-11-24T21:35:34.267Z,77.98
2022-11-24T21:38:00.859Z,77.52
2022-11-24T21:40:27.648Z,77.58
2022-11-24T21:42:54.280Z,78.29
2022-11-24T21:45:20.803Z,77.66
2022-11-24T21:47:47.356Z,78.29
2022-11-24T21:50:13.890Z,78.96
2022-11-24T21:52:40.455Z,79.30
2022-11-24T21:55:07.316Z,77.82
2022-11-24T21:57:33.954Z,78.85
2022-11-24T22:00:00.519Z,79.07
2022-11-24T22:02:27.096Z,77.78
2022-11-24T22:04:53.767Z,78.99
2022-11-24T22:07:20.452Z,78.46
2022-11-24T22:09:49.118Z,77.95
2022-11-24T22:12:16.328Z,78.86
2022-11-24T22:14:43.239Z,77.38
2022-11-24T22:17:10.038Z,78.82
2022-11-24T22:19:36.589Z,78.32
2022-11-24T22:22:03.133Z,77.20
2022-11-24T22:24:29.970Z,77.53
2022-11-24T22:26:56.526Z,78.59
2022-11-24T22:29:23.067Z,77.89
2022-11-24T22:31:49.759Z,78.55
2022-11-24T22:34:16.419Z,77.50
2022-11-24T22:36:42.995Z,78.31
2022-11-24T22:39:12.123Z,77.68
2022-11-24T22:41:38.846Z,77.31
2022-11-24T22:44:05.843Z,77.41
2022-11-24T22:46:32.825Z,78.36
2022-11-24T22:49:01.049Z,78.43
2022-11-24T22:51:31.353Z,77.75
2022-11-24T22:53:59.529Z,77.90
2022-11-24T22:56:28.067Z,78.36
2022-11-24T22:58:54.829Z,77.50
2022-11-24T23:01:23.911Z,78.29
2022-11-24T23:03:53.796Z,77.37
2022-11-24T23:06:24.035Z,77.53
2022-11-24T23:08:51.912Z,76.75
2022-11-24T23:11:24.668Z,76.47
2022-11-24T23:13:55.448Z,77.92
2022-11-24T23:16:22.814Z,76.76
2022-11-24T23:18:53.702Z,77.36
2022-11-24T23:23:58.112Z,77.16
2022-11-24T23:26:27.958Z,76.76
2022-11-24T23:28:54.723Z,76.75
2022-11-24T23:31:24.563Z,76.69
2022-11-24T23:33:51.273Z,77.82
2022-11-24T23:36:19.647Z,77.46
2022-11-24T23:38:46.839Z,77.42
2022-11-24T23:41:16.023Z,77.39
2022-11-24T23:43:43.177Z,77.67
2022-11-24T23:46:12.591Z,77.87
2022-11-24T23:48:39.913Z,77.59
2022-11-24T23:51:26.362Z,77.23
2022-11-24T23:53:53.350Z,77.36
2022-11-24T23:56:24.786Z,77.44
2022-11-24T23:58:51.871Z,76.34
